Terminal Aerodrome Forecast
Issued by NWS Newport/Morehead City, NC

Current Version | Previous Version | Text Only | Print | Product List | Glossary On
Versions: 1 2 3 4 5 6 7 8 9 10 11 12 13
000
FTUS42 KMHX 260541
TAFEWN
TAF
KEWN 260541Z 2606/2706 35004KT 4SM -DZ BR OVC004
     FM261200 06004KT P6SM VCTS BKN004 OVC015CB
     FM261500 02005KT P6SM OVC007
     FM261800 36005KT P6SM OVC015
     FM270000 VRB03KT P6SM BKN050=

USA.gov is the U.S. government's official web portal to all federal, state and local government web resources and services.